createdAt,value
2022-10-18T00:01:19.536Z,88.68
2022-10-18T00:06:19.036Z,88.57
2022-10-18T00:11:19.092Z,88.59
2022-10-18T00:16:19.046Z,88.57
2022-10-18T00:21:20.818Z,88.58
2022-10-18T00:26:26.167Z,88.89
2022-10-18T00:31:24.740Z,88.93
2022-10-18T00:36:20.041Z,88.57
2022-10-18T00:41:23.559Z,89.06
2022-10-18T00:46:19.448Z,88.58
2022-10-18T00:51:20.453Z,88.52
2022-10-18T00:56:19.611Z,88.58
2022-10-18T01:01:22.139Z,88.73
2022-10-18T01:06:19.250Z,88.61
2022-10-18T01:11:39.074Z,88.89
2022-10-18T01:16:28.077Z,88.64
2022-10-18T01:21:31.367Z,88.80
2022-10-18T01:26:33.869Z,88.94
2022-10-18T01:31:24.553Z,88.93
2022-10-18T01:36:22.714Z,89.11
2022-10-18T01:41:23.231Z,89.02
2022-10-18T01:46:22.903Z,89.00
2022-10-18T01:51:24.146Z,89.17
2022-10-18T01:56:24.482Z,88.95
2022-10-18T02:01:29.738Z,88.86
2022-10-18T02:06:26.948Z,88.74
2022-10-18T02:11:19.668Z,89.08
2022-10-18T02:16:24.711Z,88.52
2022-10-18T02:21:20.341Z,89.01
2022-10-18T02:26:19.457Z,89.31
2022-10-18T02:31:32.875Z,89.11
2022-10-18T02:36:32.428Z,88.74
2022-10-18T02:41:24.848Z,88.96
2022-10-18T02:46:19.980Z,89.64
2022-10-18T02:51:19.397Z,89.72
2022-10-18T02:56:19.413Z,89.56
2022-10-18T03:01:19.941Z,89.61
2022-10-18T03:06:19.445Z,89.47
2022-10-18T03:11:19.904Z,89.53
2022-10-18T03:16:19.497Z,89.44
2022-10-18T03:21:19.528Z,89.65
2022-10-18T03:26:19.464Z,89.71
2022-10-18T03:31:20.814Z,89.71
2022-10-18T03:36:19.525Z,89.55
2022-10-18T03:41:19.604Z,89.49
2022-10-18T03:46:19.526Z,89.84
2022-10-18T03:51:19.598Z,89.33
2022-10-18T03:56:19.518Z,89.44
2022-10-18T04:01:21.055Z,89.44
2022-10-18T04:06:19.559Z,89.52
2022-10-18T04:11:19.585Z,89.35
2022-10-18T04:16:19.622Z,89.42
2022-10-18T04:21:19.657Z,89.50
2022-10-18T04:26:19.604Z,89.47
2022-10-18T04:31:19.631Z,89.64
2022-10-18T04:36:19.743Z,89.26
2022-10-18T04:41:19.630Z,89.22
2022-10-18T04:46:19.672Z,89.15
2022-10-18T04:51:19.641Z,89.37
2022-10-18T04:56:19.892Z,89.36
2022-10-18T05:01:20.241Z,89.06
2022-10-18T05:06:21.004Z,89.03
2022-10-18T05:11:19.757Z,89.09
2022-10-18T05:16:19.750Z,89.38
2022-10-18T05:21:19.761Z,89.32
2022-10-18T05:26:19.727Z,89.13
2022-10-18T05:31:19.999Z,89.33
2022-10-18T05:36:19.766Z,88.86
2022-10-18T05:41:19.955Z,89.00
2022-10-18T05:46:19.807Z,88.93
2022-10-18T05:51:19.792Z,88.98
2022-10-18T05:56:19.808Z,89.13
2022-10-18T06:01:21.313Z,88.86
2022-10-18T06:06:19.857Z,89.11
2022-10-18T06:11:20.093Z,89.39
2022-10-18T06:16:21.492Z,89.00
2022-10-18T06:21:21.169Z,89.05
2022-10-18T06:26:20.432Z,89.05
2022-10-18T06:31:20.153Z,89.17
2022-10-18T06:36:20.756Z,88.82
2022-10-18T06:41:19.891Z,88.90
2022-10-18T06:46:19.956Z,89.17
2022-10-18T06:51:19.918Z,88.88
2022-10-18T06:56:19.955Z,88.77
2022-10-18T07:01:21.159Z,88.74
2022-10-18T07:06:20.848Z,88.90
2022-10-18T07:11:22.498Z,88.92
2022-10-18T07:16:20.227Z,89.06
2022-10-18T07:21:22.875Z,88.70
2022-10-18T07:26:26.256Z,89.17
2022-10-18T07:31:21.118Z,89.13
2022-10-18T07:36:20.465Z,88.57
2022-10-18T07:41:20.480Z,87.98
2022-10-18T07:46:21.364Z,88.24
2022-10-18T07:51:20.244Z,88.35
2022-10-18T07:56:21.375Z,88.02
2022-10-18T08:01:22.862Z,87.74
2022-10-18T08:06:21.263Z,87.63
2022-10-18T08:11:22.796Z,87.51
2022-10-18T08:16:22.603Z,87.78
2022-10-18T08:21:20.446Z,87.45
2022-10-18T08:26:21.909Z,86.46
2022-10-18T08:31:20.179Z,85.62
2022-10-18T08:36:20.147Z,85.45
2022-10-18T08:41:27.284Z,84.21
2022-10-18T08:46:20.385Z,84.73
2022-10-18T08:51:31.161Z,79.97
2022-10-18T08:56:20.344Z,75.83
2022-10-18T09:01:28.880Z,70.78
2022-10-18T09:06:27.233Z,64.94
2022-10-18T09:11:30.188Z,58.44
2022-10-18T09:16:33.020Z,56.34
2022-10-18T09:21:31.741Z,52.71
2022-10-18T09:26:22.861Z,50.75
2022-10-18T09:31:34.378Z,49.68
2022-10-18T09:36:23.188Z,50.57
2022-10-18T09:41:27.637Z,49.37
2022-10-18T09:46:23.743Z,47.85
2022-10-18T09:51:23.634Z,51.68
2022-10-18T09:56:28.812Z,57.31
2022-10-18T10:01:25.158Z,60.34
2022-10-18T10:06:31.455Z,60.29
2022-10-18T10:11:32.126Z,62.51
2022-10-18T10:16:20.962Z,64.18
2022-10-18T10:21:20.819Z,64.06
2022-10-18T10:26:32.310Z,61.79
2022-10-18T10:31:23.649Z,57.94
2022-10-18T10:36:20.570Z,59.74
2022-10-18T10:41:23.012Z,62.86
2022-10-18T10:46:20.789Z,63.48
2022-10-18T10:51:28.798Z,62.95
2022-10-18T10:56:26.584Z,63.19
2022-10-18T11:01:24.689Z,62.80
2022-10-18T11:06:36.490Z,63.13
2022-10-18T11:11:26.562Z,62.73
2022-10-18T11:16:31.362Z,62.02
2022-10-18T11:21:26.538Z,61.93
2022-10-18T11:26:42.133Z,59.42
2022-10-18T11:31:29.879Z,62.04
2022-10-18T11:36:31.222Z,56.97
2022-10-18T11:41:31.559Z,60.88
2022-10-18T11:46:36.561Z,59.20
2022-10-18T11:51:56.020Z,57.90
2022-10-18T11:56:25.864Z,60.52
2022-10-18T12:01:31.609Z,60.36
2022-10-18T12:06:24.168Z,54.78
2022-10-18T12:11:28.181Z,57.49
2022-10-18T12:16:33.786Z,54.45
2022-10-18T12:21:25.451Z,58.09
2022-10-18T12:26:21.703Z,55.33
2022-10-18T12:31:29.474Z,55.79
2022-10-18T12:36:20.681Z,57.75
2022-10-18T12:41:24.448Z,57.67
2022-10-18T12:46:20.990Z,55.11
2022-10-18T12:51:21.473Z,55.13
2022-10-18T12:56:28.086Z,51.24
2022-10-18T13:01:22.159Z,53.32
2022-10-18T13:06:22.175Z,51.73
2022-10-18T13:11:31.731Z,46.28
2022-10-18T13:16:21.760Z,49.00
2022-10-18T13:21:40.706Z,41.92
2022-10-18T13:26:30.833Z,34.86
2022-10-18T13:31:26.851Z,39.28
2022-10-18T13:36:23.746Z,37.35
2022-10-18T13:46:32.069Z,31.97
2022-10-18T13:51:28.285Z,35.29
2022-10-18T13:56:34.083Z,35.57
2022-10-18T14:01:29.458Z,37.54
2022-10-18T14:06:23.403Z,40.17
2022-10-18T14:11:30.859Z,41.55
2022-10-18T14:16:40.840Z,42.24
2022-10-18T14:21:31.320Z,45.42
2022-10-18T14:26:20.937Z,46.76
2022-10-18T14:31:21.027Z,47.58
2022-10-18T14:36:22.002Z,48.26
2022-10-18T14:41:23.140Z,47.14
2022-10-18T14:46:24.127Z,48.73
2022-10-18T14:51:21.513Z,50.04
2022-10-18T14:56:26.351Z,50.94
2022-10-18T15:01:26.896Z,50.67
2022-10-18T15:06:21.078Z,50.83
2022-10-18T15:11:21.815Z,49.61
2022-10-18T15:16:25.587Z,50.39
2022-10-18T15:21:22.964Z,51.50
2022-10-18T15:26:25.471Z,53.72
2022-10-18T15:31:22.809Z,52.20
2022-10-18T15:36:27.301Z,52.86
2022-10-18T15:41:40.101Z,53.08
2022-10-18T15:46:30.966Z,54.37
2022-10-18T15:51:31.094Z,54.72
2022-10-18T15:56:31.097Z,55.88
2022-10-18T16:01:32.282Z,56.51
2022-10-18T16:06:21.157Z,58.10
2022-10-18T16:11:23.918Z,58.67
2022-10-18T16:16:25.199Z,58.95
2022-10-18T16:21:27.887Z,60.16
2022-10-18T16:26:22.575Z,61.94
2022-10-18T16:31:24.936Z,61.61
2022-10-18T16:36:24.636Z,61.84
2022-10-18T16:41:22.091Z,63.69
2022-10-18T16:46:26.047Z,63.34
2022-10-18T16:51:21.762Z,65.71
2022-10-18T16:56:25.643Z,64.96
2022-10-18T17:01:23.415Z,65.90
2022-10-18T17:06:24.791Z,66.80
2022-10-18T17:11:23.461Z,67.98
2022-10-18T17:16:25.558Z,69.60
2022-10-18T17:21:21.829Z,69.99
2022-10-18T17:26:28.997Z,70.69
2022-10-18T17:31:22.022Z,71.04
2022-10-18T17:36:21.800Z,71.48
2022-10-18T17:41:21.613Z,71.73
2022-10-18T17:46:21.485Z,72.04
2022-10-18T17:51:21.754Z,72.30
2022-10-18T17:56:21.441Z,72.76
2022-10-18T18:01:23.116Z,73.06
2022-10-18T18:06:24.486Z,73.16
2022-10-18T18:11:21.589Z,73.95
2022-10-18T18:16:23.974Z,74.17
2022-10-18T18:21:22.821Z,73.95
2022-10-18T18:26:21.879Z,74.15
2022-10-18T18:31:23.038Z,74.26
2022-10-18T18:36:23.331Z,74.77
2022-10-18T18:41:23.723Z,74.86
2022-10-18T18:46:23.139Z,75.20
2022-10-18T18:51:21.576Z,74.52
2022-10-18T18:56:23.695Z,75.21
2022-10-18T19:01:25.336Z,74.86
2022-10-18T19:06:24.503Z,75.62
2022-10-18T19:11:21.790Z,75.63
2022-10-18T19:16:32.672Z,76.00
2022-10-18T19:21:23.103Z,75.80
2022-10-18T19:26:33.626Z,76.25
2022-10-18T19:31:21.824Z,75.54
2022-10-18T19:36:21.928Z,75.92
2022-10-18T19:41:21.774Z,76.18
2022-10-18T19:46:21.804Z,76.32
2022-10-18T19:51:25.305Z,76.53
2022-10-18T19:56:22.798Z,76.82
2022-10-18T20:01:24.581Z,76.18
2022-10-18T20:06:22.373Z,76.73
2022-10-18T20:11:24.019Z,76.96
2022-10-18T20:16:28.107Z,77.46
2022-10-18T20:21:21.845Z,77.39
2022-10-18T20:26:22.268Z,77.54
2022-10-18T20:31:23.693Z,77.62
2022-10-18T20:36:22.189Z,77.71
2022-10-18T20:41:24.913Z,77.76
2022-10-18T20:46:22.494Z,77.77
2022-10-18T20:51:22.035Z,77.52
2022-10-18T20:56:23.728Z,77.67
2022-10-18T21:01:24.804Z,78.10
2022-10-18T21:06:25.013Z,77.74
2022-10-18T21:11:22.389Z,77.33
2022-10-18T21:16:21.891Z,78.05
2022-10-18T21:21:23.704Z,78.51
2022-10-18T21:26:24.566Z,78.53
2022-10-18T21:31:24.559Z,77.70
2022-10-18T21:36:22.685Z,78.43
2022-10-18T21:41:22.513Z,78.58
2022-10-18T21:46:24.027Z,79.25
2022-10-18T21:51:25.791Z,78.98
2022-10-18T21:56:25.233Z,79.35
2022-10-18T22:01:25.369Z,78.93
2022-10-18T22:06:22.588Z,79.12
2022-10-18T22:11:26.341Z,79.00
2022-10-18T22:16:22.432Z,78.45
2022-10-18T22:21:22.029Z,78.92
2022-10-18T22:26:24.777Z,79.09
2022-10-18T22:31:23.958Z,79.56
2022-10-18T22:36:23.398Z,79.64
2022-10-18T22:41:22.350Z,79.49
2022-10-18T22:46:22.157Z,79.72
2022-10-18T22:51:22.345Z,79.60
2022-10-18T22:56:22.717Z,79.69
2022-10-18T23:01:24.570Z,80.30
2022-10-18T23:06:32.048Z,79.61
2022-10-18T23:11:24.074Z,79.88
2022-10-18T23:16:22.783Z,79.41
2022-10-18T23:21:23.876Z,79.95
2022-10-18T23:26:24.425Z,80.04
2022-10-18T23:31:24.711Z,79.91
2022-10-18T23:36:23.345Z,80.02
2022-10-18T23:41:22.643Z,78.84
2022-10-18T23:46:22.457Z,79.97
2022-10-18T23:51:22.219Z,79.57
2022-10-18T23:56:22.245Z,79.74
